Wenceslau Braz, Brazil
Current Conditions -  °F | °C
As of 6:00 AM on Sunday 23 Nov 2014 (Local Time) from SBGW Reporting Station
Overcast Overcast  
Wind Chill: 70°   Ceiling: 2000
Heat Index: 70°   Visibility: 5mi
Dew Point: 66°   Wind: 2mph
Humidity: 88%   Direction: 90°E
Pressure: 29.91"   Gusts: NA
Location:  22.53°S, 45.36°W
Report Text: SBGW 230800Z 09002KT 8000 BKN020 OVC080 21/19 Q1013
Loading
Personal Weather Stations






























Interactive Weather Map New forecast layout! Learn more

10-Day Weather Forecast

Advertisements
Track Severe Weather on mobile